sensor_id;sensor_type;location;lat;lon;timestamp;pressure;altitude;pressure_sealevel;temperature;humidity
9335;BME280;4706;41.844;26.082;2023-05-22T00:00:36;100350.22;;;19.91;75.31
9335;BME280;4706;41.844;26.082;2023-05-22T00:03:06;100344.03;;;19.82;75.62
9335;BME280;4706;41.844;26.082;2023-05-22T00:05:32;100351.41;;;19.90;75.64
9335;BME280;4706;41.844;26.082;2023-05-22T00:07:58;100351.41;;;19.90;75.51
9335;BME280;4706;41.844;26.082;2023-05-22T00:10:24;100348.97;;;19.88;75.51
9335;BME280;4706;41.844;26.082;2023-05-22T00:12:50;100355.28;;;19.85;75.38
9335;BME280;4706;41.844;26.082;2023-05-22T00:15:15;100347.78;;;19.89;74.97
9335;BME280;4706;41.844;26.082;2023-05-22T00:17:41;100332.25;;;19.69;75.59
9335;BME280;4706;41.844;26.082;2023-05-22T00:20:07;100344.88;;;19.82;75.36
9335;BME280;4706;41.844;26.082;2023-05-22T00:22:35;100356.44;;;19.84;75.28
9335;BME280;4706;41.844;26.082;2023-05-22T00:25:04;100340.75;;;19.76;75.15
9335;BME280;4706;41.844;26.082;2023-05-22T00:27:30;100342.81;;;19.79;74.86
9335;BME280;4706;41.844;26.082;2023-05-22T00:29:57;100338.63;;;19.70;74.78
9335;BME280;4706;41.844;26.082;2023-05-22T00:32:22;100345.94;;;19.78;74.37
9335;BME280;4706;41.844;26.082;2023-05-22T00:34:47;100351.59;;;19.81;73.88
9335;BME280;4706;41.844;26.082;2023-05-22T00:37:13;100335.66;;;19.82;73.57
9335;BME280;4706;41.844;26.082;2023-05-22T00:39:38;100347.50;;;19.75;73.00
9335;BME280;4706;41.844;26.082;2023-05-22T00:42:04;100347.94;;;19.77;72.59
9335;BME280;4706;41.844;26.082;2023-05-22T00:44:30;100352.72;;;19.77;72.06
9335;BME280;4706;41.844;26.082;2023-05-22T00:46:55;100353.59;;;19.81;71.98
9335;BME280;4706;41.844;26.082;2023-05-22T00:49:21;100363.22;;;19.83;70.39
9335;BME280;4706;41.844;26.082;2023-05-22T00:51:47;100359.25;;;19.84;71.00
9335;BME280;4706;41.844;26.082;2023-05-22T00:54:13;100355.16;;;19.78;71.81
9335;BME280;4706;41.844;26.082;2023-05-22T00:56:40;100361.09;;;19.77;72.65
9335;BME280;4706;41.844;26.082;2023-05-22T00:59:06;100358.81;;;19.82;73.41
9335;BME280;4706;41.844;26.082;2023-05-22T01:01:32;100357.94;;;19.78;74.27
9335;BME280;4706;41.844;26.082;2023-05-22T01:04:03;100353.91;;;19.76;74.77
9335;BME280;4706;41.844;26.082;2023-05-22T01:06:32;100351.59;;;19.81;75.30
9335;BME280;4706;41.844;26.082;2023-05-22T01:08:57;100360.75;;;19.78;75.25
9335;BME280;4706;41.844;26.082;2023-05-22T01:17:18;100357.88;;;19.75;75.07
9335;BME280;4706;41.844;26.082;2023-05-22T01:19:57;100349.84;;;19.73;75.31
9335;BME280;4706;41.844;26.082;2023-05-22T01:31:01;100340.75;;;19.76;75.39
9335;BME280;4706;41.844;26.082;2023-05-22T01:33:35;100343.09;;;19.74;75.21
9335;BME280;4706;41.844;26.082;2023-05-22T01:36:05;100331.56;;;19.76;74.64
9335;BME280;4706;41.844;26.082;2023-05-22T01:38:33;100331.50;;;19.72;74.84
9335;BME280;4706;41.844;26.082;2023-05-22T01:40:58;100321.06;;;19.69;74.70
9335;BME280;4706;41.844;26.082;2023-05-22T01:43:25;100319.47;;;19.68;74.44
9335;BME280;4706;41.844;26.082;2023-05-22T01:45:51;100320.94;;;19.62;75.31
9335;BME280;4706;41.844;26.082;2023-05-22T01:48:17;100322.44;;;19.59;75.57
9335;BME280;4706;41.844;26.082;2023-05-22T01:50:42;100326.06;;;19.60;75.26
9335;BME280;4706;41.844;26.082;2023-05-22T02:01:08;100321.22;;;19.57;75.76
9335;BME280;4706;41.844;26.082;2023-05-22T02:03:35;100324.81;;;19.57;75.90
9335;BME280;4706;41.844;26.082;2023-05-22T02:06:04;100324.34;;;19.55;75.69
9335;BME280;4706;41.844;26.082;2023-05-22T02:08:31;100331.56;;;19.56;75.74
9335;BME280;4706;41.844;26.082;2023-05-22T02:10:58;100331.41;;;19.49;75.69
9335;BME280;4706;41.844;26.082;2023-05-22T02:13:25;100318.94;;;19.43;74.77
9335;BME280;4706;41.844;26.082;2023-05-22T02:15:51;100323.84;;;19.50;75.07
9335;BME280;4706;41.844;26.082;2023-05-22T02:18:16;100326.19;;;19.48;75.11
9335;BME280;4706;41.844;26.082;2023-05-22T02:20:42;100323.78;;;19.46;75.43
9335;BME280;4706;41.844;26.082;2023-05-22T02:23:08;100327.44;;;19.50;75.25
9335;BME280;4706;41.844;26.082;2023-05-22T02:25:34;100314.94;;;19.44;75.07
9335;BME280;4706;41.844;26.082;2023-05-22T02:27:59;100321.63;;;19.39;74.92
9335;BME280;4706;41.844;26.082;2023-05-22T02:30:25;100316.88;;;19.40;75.50
9335;BME280;4706;41.844;26.082;2023-05-22T02:32:51;100313.28;;;19.39;75.58
9335;BME280;4706;41.844;26.082;2023-05-22T02:35:16;100321.38;;;19.45;75.71
9335;BME280;4706;41.844;26.082;2023-05-22T02:37:42;100317.25;;;19.38;75.79
9335;BME280;4706;41.844;26.082;2023-05-22T02:40:07;100310.88;;;19.38;75.98
9335;BME280;4706;41.844;26.082;2023-05-22T02:42:34;100305.22;;;19.34;76.39
9335;BME280;4706;41.844;26.082;2023-05-22T02:45:00;100320.03;;;19.38;76.38
9335;BME280;4706;41.844;26.082;2023-05-22T02:47:26;100320.41;;;19.37;76.57
9335;BME280;4706;41.844;26.082;2023-05-22T02:49:51;100319.22;;;19.38;77.24
9335;BME280;4706;41.844;26.082;2023-05-22T02:52:17;100318.44;;;19.37;77.35
9335;BME280;4706;41.844;26.082;2023-05-22T02:54:42;100319.16;;;19.34;77.92
9335;BME280;4706;41.844;26.082;2023-05-22T02:57:08;100325.53;;;19.35;77.87
9335;BME280;4706;41.844;26.082;2023-05-22T02:59:34;100327.00;;;19.29;78.04
9335;BME280;4706;41.844;26.082;2023-05-22T03:02:01;100324.19;;;19.29;78.14
9335;BME280;4706;41.844;26.082;2023-05-22T03:04:26;100308.28;;;19.29;77.94
9335;BME280;4706;41.844;26.082;2023-05-22T03:06:54;100313.41;;;19.27;78.13
9335;BME280;4706;41.844;26.082;2023-05-22T03:09:19;100329.50;;;19.34;77.75
9335;BME280;4706;41.844;26.082;2023-05-22T03:11:45;100314.59;;;19.26;78.11
9335;BME280;4706;41.844;26.082;2023-05-22T03:14:10;100323.03;;;19.30;78.45
9335;BME280;4706;41.844;26.082;2023-05-22T03:16:36;100324.56;;;19.27;78.44
9335;BME280;4706;41.844;26.082;2023-05-22T03:19:12;100332.56;;;19.29;78.44
9335;BME280;4706;41.844;26.082;2023-05-22T03:21:39;100309.03;;;19.26;78.67
9335;BME280;4706;41.844;26.082;2023-05-22T03:24:05;100322.28;;;19.33;78.26
9335;BME280;4706;41.844;26.082;2023-05-22T03:26:31;100321.94;;;19.34;78.25
9335;BME280;4706;41.844;26.082;2023-05-22T03:28:57;100323.94;;;19.34;78.24
9335;BME280;4706;41.844;26.082;2023-05-22T03:31:27;100325.84;;;19.30;78.84
9335;BME280;4706;41.844;26.082;2023-05-22T03:33:53;100322.22;;;19.29;78.81
9335;BME280;4706;41.844;26.082;2023-05-22T03:36:19;100321.13;;;19.34;78.83
9335;BME280;4706;41.844;26.082;2023-05-22T03:38:45;100328.81;;;19.40;78.78
9335;BME280;4706;41.844;26.082;2023-05-22T03:41:11;100325.06;;;19.33;79.21
9335;BME280;4706;41.844;26.082;2023-05-22T03:43:38;100335.09;;;19.34;79.02
9335;BME280;4706;41.844;26.082;2023-05-22T03:46:03;100342.72;;;19.37;78.84
9335;BME280;4706;41.844;26.082;2023-05-22T03:48:29;100335.44;;;19.32;78.78
9335;BME280;4706;41.844;26.082;2023-05-22T03:50:55;100332.28;;;19.34;78.29
9335;BME280;4706;41.844;26.082;2023-05-22T03:53:21;100332.38;;;19.37;78.31
9335;BME280;4706;41.844;26.082;2023-05-22T03:55:46;100341.97;;;19.40;78.03
9335;BME280;4706;41.844;26.082;2023-05-22T03:58:12;100333.97;;;19.38;77.74
9335;BME280;4706;41.844;26.082;2023-05-22T04:00:37;100344.75;;;19.40;77.38
9335;BME280;4706;41.844;26.082;2023-05-22T04:03:03;100348.88;;;19.46;76.45
9335;BME280;4706;41.844;26.082;2023-05-22T04:05:28;100345.38;;;19.49;75.39
9335;BME280;4706;41.844;26.082;2023-05-22T04:07:56;100352.03;;;19.45;75.27
9335;BME280;4706;41.844;26.082;2023-05-22T04:10:22;100349.25;;;19.45;75.49
9335;BME280;4706;41.844;26.082;2023-05-22T04:12:48;100343.22;;;19.42;74.90
9335;BME280;4706;41.844;26.082;2023-05-22T04:15:14;100348.06;;;19.46;74.66
9335;BME280;4706;41.844;26.082;2023-05-22T04:17:40;100341.09;;;19.36;74.82
9335;BME280;4706;41.844;26.082;2023-05-22T04:20:07;100339.56;;;19.38;74.53
9335;BME280;4706;41.844;26.082;2023-05-22T04:22:33;100337.78;;;19.50;73.35
9335;BME280;4706;41.844;26.082;2023-05-22T04:24:58;100358.47;;;19.64;73.11
9335;BME280;4706;41.844;26.082;2023-05-22T04:27:24;100368.44;;;19.65;73.26
9335;BME280;4706;41.844;26.082;2023-05-22T04:29:50;100353.81;;;19.53;72.81
9335;BME280;4706;41.844;26.082;2023-05-22T04:32:17;100370.88;;;19.67;73.08
9335;BME280;4706;41.844;26.082;2023-05-22T04:34:47;100366.53;;;19.70;73.25
9335;BME280;4706;41.844;26.082;2023-05-22T04:37:13;100368.22;;;19.74;73.59
9335;BME280;4706;41.844;26.082;2023-05-22T04:39:43;100379.75;;;19.73;74.40
9335;BME280;4706;41.844;26.082;2023-05-22T04:42:14;100376.22;;;19.76;74.94
9335;BME280;4706;41.844;26.082;2023-05-22T04:44:43;100372.91;;;19.70;75.57
9335;BME280;4706;41.844;26.082;2023-05-22T04:47:08;100379.91;;;19.80;75.72
9335;BME280;4706;41.844;26.082;2023-05-22T04:49:42;100375.13;;;19.80;75.62
9335;BME280;4706;41.844;26.082;2023-05-22T04:52:08;100382.25;;;19.97;74.21
9335;BME280;4706;41.844;26.082;2023-05-22T04:54:36;100385.06;;;20.01;73.69
9335;BME280;4706;41.844;26.082;2023-05-22T04:57:01;100373.09;;;20.00;73.23
9335;BME280;4706;41.844;26.082;2023-05-22T04:59:30;100389.56;;;20.05;72.57
9335;BME280;4706;41.844;26.082;2023-05-22T05:01:55;100383.19;;;20.05;72.21
9335;BME280;4706;41.844;26.082;2023-05-22T05:04:21;100388.66;;;20.21;71.58
9335;BME280;4706;41.844;26.082;2023-05-22T05:06:46;100388.66;;;20.21;70.69
9335;BME280;4706;41.844;26.082;2023-05-22T05:09:12;100397.91;;;20.25;69.55
9335;BME280;4706;41.844;26.082;2023-05-22T05:11:37;100394.81;;;20.30;68.68
9335;BME280;4706;41.844;26.082;2023-05-22T05:14:03;100388.53;;;20.36;67.95
9335;BME280;4706;41.844;26.082;2023-05-22T05:16:28;100402.25;;;20.45;67.61
9335;BME280;4706;41.844;26.082;2023-05-22T05:18:54;100396.47;;;20.54;67.33
9335;BME280;4706;41.844;26.082;2023-05-22T05:21:19;100393.28;;;20.55;66.86
9335;BME280;4706;41.844;26.082;2023-05-22T05:23:46;100399.06;;;20.66;66.77
9335;BME280;4706;41.844;26.082;2023-05-22T05:26:11;100390.06;;;20.76;66.66
9335;BME280;4706;41.844;26.082;2023-05-22T05:28:37;100386.50;;;20.79;66.03
9335;BME280;4706;41.844;26.082;2023-05-22T05:31:02;100402.28;;;20.91;66.28
9335;BME280;4706;41.844;26.082;2023-05-22T05:33:28;100394.38;;;20.97;64.87
9335;BME280;4706;41.844;26.082;2023-05-22T05:35:54;100394.81;;;20.99;65.29
9335;BME280;4706;41.844;26.082;2023-05-22T05:38:19;100397.66;;;21.02;65.90
9335;BME280;4706;41.844;26.082;2023-05-22T05:40:45;100401.28;;;21.03;66.26
9335;BME280;4706;41.844;26.082;2023-05-22T05:43:11;100406.63;;;21.15;65.94
9335;BME280;4706;41.844;26.082;2023-05-22T05:45:41;100399.22;;;21.26;65.83
9335;BME280;4706;41.844;26.082;2023-05-22T05:48:07;100399.69;;;21.32;65.28
9335;BME280;4706;41.844;26.082;2023-05-22T05:50:32;100406.75;;;21.49;65.54
9335;BME280;4706;41.844;26.082;2023-05-22T05:52:58;100406.34;;;21.80;65.32
9335;BME280;4706;41.844;26.082;2023-05-22T05:55:23;100399.06;;;22.06;63.35
9335;BME280;4706;41.844;26.082;2023-05-22T05:57:49;100406.59;;;22.36;62.65
9335;BME280;4706;41.844;26.082;2023-05-22T06:00:14;100415.75;;;22.70;61.45
9335;BME280;4706;41.844;26.082;2023-05-22T06:02:40;100416.00;;;22.98;60.91
9335;BME280;4706;41.844;26.082;2023-05-22T06:05:06;100412.47;;;23.12;59.24
9335;BME280;4706;41.844;26.082;2023-05-22T06:07:33;100414.59;;;23.26;58.87
9335;BME280;4706;41.844;26.082;2023-05-22T06:10:05;100423.53;;;23.46;58.40
9335;BME280;4706;41.844;26.082;2023-05-22T06:12:31;100416.06;;;23.68;56.83
9335;BME280;4706;41.844;26.082;2023-05-22T06:14:57;100417.69;;;23.76;57.01
9335;BME280;4706;41.844;26.082;2023-05-22T06:17:23;100409.28;;;23.83;55.47
9335;BME280;4706;41.844;26.082;2023-05-22T06:19:48;100425.44;;;24.01;54.47
9335;BME280;4706;41.844;26.082;2023-05-22T06:22:14;100424.31;;;24.27;55.51
9335;BME280;4706;41.844;26.082;2023-05-22T06:24:40;100407.44;;;24.30;54.71
9335;BME280;4706;41.844;26.082;2023-05-22T06:27:05;100419.94;;;24.47;53.03
9335;BME280;4706;41.844;26.082;2023-05-22T06:29:31;100417.16;;;24.65;53.27
9335;BME280;4706;41.844;26.082;2023-05-22T06:31:56;100422.00;;;24.79;52.88
9335;BME280;4706;41.844;26.082;2023-05-22T06:34:23;100418.38;;;25.10;52.26
9335;BME280;4706;41.844;26.082;2023-05-22T06:36:49;100413.09;;;25.34;51.23
9335;BME280;4706;41.844;26.082;2023-05-22T06:39:16;100416.66;;;25.56;49.82
9335;BME280;4706;41.844;26.082;2023-05-22T06:41:42;100420.25;;;25.81;49.56
9335;BME280;4706;41.844;26.082;2023-05-22T06:44:08;100405.25;;;25.99;48.27
9335;BME280;4706;41.844;26.082;2023-05-22T06:46:33;100410.78;;;26.20;49.31
9335;BME280;4706;41.844;26.082;2023-05-22T06:48:59;100417.63;;;26.23;48.84
9335;BME280;4706;41.844;26.082;2023-05-22T06:51:25;100423.16;;;26.40;48.92
9335;BME280;4706;41.844;26.082;2023-05-22T06:53:51;100429.84;;;26.64;47.38
9335;BME280;4706;41.844;26.082;2023-05-22T06:56:17;100424.09;;;26.79;47.48
9335;BME280;4706;41.844;26.082;2023-05-22T06:58:42;100429.28;;;26.87;46.70
9335;BME280;4706;41.844;26.082;2023-05-22T07:01:08;100431.25;;;26.91;46.27
9335;BME280;4706;41.844;26.082;2023-05-22T07:03:34;100431.72;;;26.85;46.45
9335;BME280;4706;41.844;26.082;2023-05-22T07:05:59;100428.59;;;26.69;44.71
9335;BME280;4706;41.844;26.082;2023-05-22T07:08:26;100432.00;;;26.39;44.21
9335;BME280;4706;41.844;26.082;2023-05-22T07:10:52;100423.31;;;26.78;45.10
9335;BME280;4706;41.844;26.082;2023-05-22T07:13:18;100423.84;;;27.07;43.90
9335;BME280;4706;41.844;26.082;2023-05-22T07:15:43;100418.69;;;27.44;43.33
9335;BME280;4706;41.844;26.082;2023-05-22T07:18:09;100408.50;;;27.53;42.40
9335;BME280;4706;41.844;26.082;2023-05-22T07:20:36;100423.81;;;27.52;41.08
9335;BME280;4706;41.844;26.082;2023-05-22T07:23:01;100415.69;;;27.58;40.76
9335;BME280;4706;41.844;26.082;2023-05-22T07:25:28;100416.69;;;27.41;41.96
9335;BME280;4706;41.844;26.082;2023-05-22T07:27:54;100416.34;;;27.35;41.20
9335;BME280;4706;41.844;26.082;2023-05-22T07:30:20;100418.88;;;27.60;39.74
9335;BME280;4706;41.844;26.082;2023-05-22T07:32:47;100420.91;;;27.59;42.16
9335;BME280;4706;41.844;26.082;2023-05-22T07:35:12;100412.28;;;26.95;42.90
9335;BME280;4706;41.844;26.082;2023-05-22T07:37:38;100419.66;;;26.78;40.76
9335;BME280;4706;41.844;26.082;2023-05-22T07:40:04;100408.28;;;26.88;41.40
9335;BME280;4706;41.844;26.082;2023-05-22T07:42:34;100419.00;;;27.08;41.37
9335;BME280;4706;41.844;26.082;2023-05-22T07:45:00;100415.03;;;26.53;42.16
9335;BME280;4706;41.844;26.082;2023-05-22T07:47:26;100425.94;;;26.48;42.45
9335;BME280;4706;41.844;26.082;2023-05-22T07:49:52;100429.69;;;26.23;41.34
9335;BME280;4706;41.844;26.082;2023-05-22T07:52:17;100415.69;;;26.05;40.45
9335;BME280;4706;41.844;26.082;2023-05-22T07:54:43;100418.31;;;25.42;41.73
9335;BME280;4706;41.844;26.082;2023-05-22T07:57:08;100422.34;;;25.41;42.13
9335;BME280;4706;41.844;26.082;2023-05-22T07:59:36;100418.63;;;25.73;43.63
9335;BME280;4706;41.844;26.082;2023-05-22T08:02:02;100410.56;;;25.75;41.92
9335;BME280;4706;41.844;26.082;2023-05-22T08:04:28;100404.84;;;26.00;42.22
9335;BME280;4706;41.844;26.082;2023-05-22T08:06:54;100405.94;;;26.21;41.52
9335;BME280;4706;41.844;26.082;2023-05-22T08:09:20;100409.41;;;26.50;41.25
9335;BME280;4706;41.844;26.082;2023-05-22T08:11:46;100395.56;;;26.70;40.32
9335;BME280;4706;41.844;26.082;2023-05-22T08:14:11;100407.44;;;26.95;40.74
9335;BME280;4706;41.844;26.082;2023-05-22T08:16:37;100406.56;;;27.02;41.11
9335;BME280;4706;41.844;26.082;2023-05-22T08:19:02;100403.97;;;27.22;39.44
9335;BME280;4706;41.844;26.082;2023-05-22T08:21:28;100414.47;;;27.21;40.31
9335;BME280;4706;41.844;26.082;2023-05-22T08:23:54;100407.97;;;26.79;41.31
9335;BME280;4706;41.844;26.082;2023-05-22T08:26:19;100409.81;;;26.97;41.02
9335;BME280;4706;41.844;26.082;2023-05-22T08:28:45;100405.50;;;27.30;40.41
9335;BME280;4706;41.844;26.082;2023-05-22T08:31:11;100405.13;;;27.66;39.26
9335;BME280;4706;41.844;26.082;2023-05-22T08:33:36;100399.53;;;27.58;37.92
9335;BME280;4706;41.844;26.082;2023-05-22T08:36:02;100407.00;;;26.97;39.78
9335;BME280;4706;41.844;26.082;2023-05-22T08:38:27;100407.22;;;26.72;41.08
9335;BME280;4706;41.844;26.082;2023-05-22T08:40:53;100410.78;;;26.79;41.72
9335;BME280;4706;41.844;26.082;2023-05-22T08:43:22;100401.69;;;27.06;41.08
9335;BME280;4706;41.844;26.082;2023-05-22T08:45:51;100407.72;;;27.49;39.58
9335;BME280;4706;41.844;26.082;2023-05-22T08:48:21;100415.09;;;26.95;39.57
9335;BME280;4706;41.844;26.082;2023-05-22T08:50:52;100407.91;;;27.31;40.22
9335;BME280;4706;41.844;26.082;2023-05-22T08:53:22;100401.00;;;27.36;40.86
9335;BME280;4706;41.844;26.082;2023-05-22T08:55:52;100407.84;;;27.39;38.98
9335;BME280;4706;41.844;26.082;2023-05-22T08:58:19;100403.63;;;27.54;37.97
9335;BME280;4706;41.844;26.082;2023-05-22T09:00:44;100370.78;;;27.33;38.61
9335;BME280;4706;41.844;26.082;2023-05-22T09:03:10;100395.31;;;27.74;38.60
9335;BME280;4706;41.844;26.082;2023-05-22T09:09:47;100414.91;;;27.57;38.03
9335;BME280;4706;41.844;26.082;2023-05-22T09:12:13;100401.63;;;27.54;38.21
9335;BME280;4706;41.844;26.082;2023-05-22T09:14:42;100405.44;;;27.37;37.84
9335;BME280;4706;41.844;26.082;2023-05-22T09:17:10;100402.88;;;27.50;39.40
9335;BME280;4706;41.844;26.082;2023-05-22T09:19:36;100403.00;;;26.94;37.09
9335;BME280;4706;41.844;26.082;2023-05-22T09:22:05;100406.22;;;26.44;37.63
9335;BME280;4706;41.844;26.082;2023-05-22T09:24:37;100409.16;;;26.85;37.09
9335;BME280;4706;41.844;26.082;2023-05-22T09:27:05;100399.63;;;27.14;37.55
9335;BME280;4706;41.844;26.082;2023-05-22T09:29:31;100400.09;;;27.46;36.69
9335;BME280;4706;41.844;26.082;2023-05-22T09:31:58;100401.88;;;27.98;37.74
9335;BME280;4706;41.844;26.082;2023-05-22T09:34:28;100391.69;;;27.77;38.00
9335;BME280;4706;41.844;26.082;2023-05-22T09:37:00;100394.88;;;27.79;37.31
9335;BME280;4706;41.844;26.082;2023-05-22T09:39:37;100393.41;;;27.98;35.92
9335;BME280;4706;41.844;26.082;2023-05-22T09:42:04;100399.47;;;28.27;35.03
9335;BME280;4706;41.844;26.082;2023-05-22T09:44:31;100391.00;;;28.27;35.25
9335;BME280;4706;41.844;26.082;2023-05-22T09:46:57;100394.81;;;28.44;35.51
9335;BME280;4706;41.844;26.082;2023-05-22T09:49:23;100386.47;;;28.33;34.66
9335;BME280;4706;41.844;26.082;2023-05-22T09:51:53;100384.81;;;28.63;35.34
9335;BME280;4706;41.844;26.082;2023-05-22T09:54:19;100395.03;;;28.80;34.91
9335;BME280;4706;41.844;26.082;2023-05-22T09:56:49;100386.41;;;28.87;35.90
9335;BME280;4706;41.844;26.082;2023-05-22T09:59:19;100393.38;;;28.83;35.58
9335;BME280;4706;41.844;26.082;2023-05-22T10:01:47;100399.19;;;28.95;35.79
9335;BME280;4706;41.844;26.082;2023-05-22T10:04:17;100391.91;;;28.98;35.60
9335;BME280;4706;41.844;26.082;2023-05-22T10:06:47;100401.34;;;28.64;35.26
9335;BME280;4706;41.844;26.082;2023-05-22T10:09:16;100387.78;;;28.79;33.88
9335;BME280;4706;41.844;26.082;2023-05-22T10:11:43;100383.91;;;28.93;32.81
9335;BME280;4706;41.844;26.082;2023-05-22T10:14:10;100389.06;;;29.21;33.30
9335;BME280;4706;41.844;26.082;2023-05-22T10:16:37;100384.56;;;29.24;34.30
9335;BME280;4706;41.844;26.082;2023-05-22T10:19:03;100378.22;;;29.60;33.70
9335;BME280;4706;41.844;26.082;2023-05-22T10:21:30;100385.34;;;29.68;32.57
9335;BME280;4706;41.844;26.082;2023-05-22T10:23:58;100379.84;;;29.97;32.47
9335;BME280;4706;41.844;26.082;2023-05-22T10:26:24;100369.09;;;29.48;33.45
9335;BME280;4706;41.844;26.082;2023-05-22T10:29:03;100368.41;;;29.64;34.27
9335;BME280;4706;41.844;26.082;2023-05-22T10:31:52;100369.72;;;29.60;33.12
9335;BME280;4706;41.844;26.082;2023-05-22T10:34:37;100374.81;;;29.25;33.80
9335;BME280;4706;41.844;26.082;2023-05-22T10:37:18;100363.88;;;29.27;33.76
9335;BME280;4706;41.844;26.082;2023-05-22T10:40:00;100354.81;;;29.75;34.91
9335;BME280;4706;41.844;26.082;2023-05-22T10:42:30;100349.78;;;29.63;33.93
9335;BME280;4706;41.844;26.082;2023-05-22T10:45:00;100354.50;;;29.30;34.66
9335;BME280;4706;41.844;26.082;2023-05-22T10:47:26;100360.00;;;29.37;35.21
9335;BME280;4706;41.844;26.082;2023-05-22T10:50:08;100357.56;;;29.59;35.91
9335;BME280;4706;41.844;26.082;2023-05-22T10:52:38;100342.00;;;29.47;34.33
9335;BME280;4706;41.844;26.082;2023-05-22T10:55:09;100339.38;;;29.37;34.07
9335;BME280;4706;41.844;26.082;2023-05-22T10:57:38;100321.03;;;29.65;33.80
9335;BME280;4706;41.844;26.082;2023-05-22T11:02:38;100330.75;;;30.85;32.28
9335;BME280;4706;41.844;26.082;2023-05-22T11:07:50;100319.03;;;30.34;33.16
9335;BME280;4706;41.844;26.082;2023-05-22T11:13:18;100306.09;;;29.81;34.33
9335;BME280;4706;41.844;26.082;2023-05-22T11:15:44;100304.22;;;29.74;34.79
9335;BME280;4706;41.844;26.082;2023-05-22T11:18:11;100299.94;;;29.66;34.60
9335;BME280;4706;41.844;26.082;2023-05-22T11:20:38;100293.22;;;29.56;33.77
9335;BME280;4706;41.844;26.082;2023-05-22T11:23:05;100298.72;;;29.27;34.62
9335;BME280;4706;41.844;26.082;2023-05-22T11:25:35;100289.03;;;28.81;35.39
9335;BME280;4706;41.844;26.082;2023-05-22T11:28:05;100288.59;;;28.63;36.42
9335;BME280;4706;41.844;26.082;2023-05-22T11:30:31;100287.00;;;28.38;36.32
9335;BME280;4706;41.844;26.082;2023-05-22T11:32:58;100287.38;;;28.40;36.18
9335;BME280;4706;41.844;26.082;2023-05-22T11:35:25;100293.94;;;28.57;35.94
9335;BME280;4706;41.844;26.082;2023-05-22T11:37:51;100290.25;;;29.03;34.35
9335;BME280;4706;41.844;26.082;2023-05-22T11:40:19;100291.97;;;29.01;34.90
9335;BME280;4706;41.844;26.082;2023-05-22T11:42:54;100289.69;;;28.69;35.46
9335;BME280;4706;41.844;26.082;2023-05-22T11:45:21;100297.03;;;28.66;36.09
9335;BME280;4706;41.844;26.082;2023-05-22T11:47:46;100284.59;;;28.60;35.09
9335;BME280;4706;41.844;26.082;2023-05-22T11:50:13;100275.41;;;28.29;35.17
9335;BME280;4706;41.844;26.082;2023-05-22T11:52:40;100278.50;;;28.38;34.52
9335;BME280;4706;41.844;26.082;2023-05-22T11:55:08;100281.25;;;28.18;35.12
9335;BME280;4706;41.844;26.082;2023-05-22T11:57:34;100271.84;;;28.25;35.68
9335;BME280;4706;41.844;26.082;2023-05-22T12:00:04;100278.38;;;28.45;35.48
9335;BME280;4706;41.844;26.082;2023-05-22T12:02:31;100277.22;;;28.66;35.72
9335;BME280;4706;41.844;26.082;2023-05-22T12:04:57;100265.13;;;28.15;35.36
9335;BME280;4706;41.844;26.082;2023-05-22T12:07:24;100275.00;;;28.03;35.50
9335;BME280;4706;41.844;26.082;2023-05-22T12:09:50;100273.47;;;27.99;36.55
9335;BME280;4706;41.844;26.082;2023-05-22T12:12:16;100259.06;;;27.90;35.62
9335;BME280;4706;41.844;26.082;2023-05-22T12:14:44;100267.69;;;27.79;36.94
9335;BME280;4706;41.844;26.082;2023-05-22T12:17:16;100261.72;;;28.00;37.09
9335;BME280;4706;41.844;26.082;2023-05-22T12:19:42;100263.25;;;28.05;36.09
9335;BME280;4706;41.844;26.082;2023-05-22T12:22:10;100248.41;;;28.24;36.72
9335;BME280;4706;41.844;26.082;2023-05-22T12:24:46;100243.78;;;28.34;35.67
9335;BME280;4706;41.844;26.082;2023-05-22T12:27:15;100243.97;;;28.23;36.67
9335;BME280;4706;41.844;26.082;2023-05-22T12:29:42;100237.41;;;28.30;35.38
9335;BME280;4706;41.844;26.082;2023-05-22T12:32:08;100243.44;;;28.55;36.17
9335;BME280;4706;41.844;26.082;2023-05-22T12:34:45;100252.28;;;28.11;35.18
9335;BME280;4706;41.844;26.082;2023-05-22T12:37:21;100236.84;;;28.15;35.91
9335;BME280;4706;41.844;26.082;2023-05-22T12:39:57;100236.41;;;28.17;36.88
9335;BME280;4706;41.844;26.082;2023-05-22T12:42:24;100232.84;;;28.13;35.67
9335;BME280;4706;41.844;26.082;2023-05-22T12:44:52;100228.47;;;28.08;36.19
9335;BME280;4706;41.844;26.082;2023-05-22T12:47:18;100222.75;;;27.88;36.29
9335;BME280;4706;41.844;26.082;2023-05-22T12:49:43;100229.38;;;28.01;35.56
9335;BME280;4706;41.844;26.082;2023-05-22T12:52:09;100226.88;;;28.07;35.46
9335;BME280;4706;41.844;26.082;2023-05-22T12:54:34;100218.28;;;28.14;35.93
9335;BME280;4706;41.844;26.082;2023-05-22T12:56:59;100223.31;;;28.03;35.52
9335;BME280;4706;41.844;26.082;2023-05-22T12:59:25;100218.53;;;28.00;35.69
9335;BME280;4706;41.844;26.082;2023-05-22T13:01:51;100216.66;;;27.90;37.22
9335;BME280;4706;41.844;26.082;2023-05-22T13:04:16;100219.38;;;27.97;37.84
9335;BME280;4706;41.844;26.082;2023-05-22T13:06:42;100218.09;;;28.01;37.92
9335;BME280;4706;41.844;26.082;2023-05-22T13:09:07;100215.88;;;28.13;36.50
9335;BME280;4706;41.844;26.082;2023-05-22T13:11:33;100219.75;;;27.99;36.54
9335;BME280;4706;41.844;26.082;2023-05-22T13:13:58;100210.03;;;28.00;37.45
9335;BME280;4706;41.844;26.082;2023-05-22T13:16:24;100201.78;;;28.09;36.42
9335;BME280;4706;41.844;26.082;2023-05-22T13:18:50;100199.03;;;28.05;36.81
9335;BME280;4706;41.844;26.082;2023-05-22T13:21:15;100202.75;;;28.02;36.87
9335;BME280;4706;41.844;26.082;2023-05-22T13:23:41;100202.75;;;28.02;37.31
9335;BME280;4706;41.844;26.082;2023-05-22T13:26:06;100196.16;;;28.09;37.18
9335;BME280;4706;41.844;26.082;2023-05-22T13:28:32;100183.78;;;28.23;37.45
9335;BME280;4706;41.844;26.082;2023-05-22T13:30:58;100183.13;;;28.39;36.64
9335;BME280;4706;41.844;26.082;2023-05-22T13:33:24;100183.13;;;28.39;35.17